Time;durP1;ratioP1;P1;durP2;ratioP2;P2;SDS_P1;SDS_P2;PMS_P1;PMS_P2;Temp;Humidity;BMP_temperature;BMP_pressure;BME280_temperature;BME280_humidity;BME280_pressure;Samples;Min_cycle;Max_cycle;Signal;HPM_P1;HPM_P2
2021/06/17 00:00:18;;;;;;;8.20;5.20;;;;;;;;;;5086690;28;20071;-57
2021/06/17 00:02:47;;;;;;;15.38;7.18;;;;;;;;;;5091135;28;20113;-56
2021/06/17 00:05:17;;;;;;;12.25;6.35;;;;;;;;;;5094135;28;20410;-57
2021/06/17 00:07:47;;;;;;;10.02;6.20;;;;;;;;;;5091595;28;20162;-57
2021/06/17 00:10:17;;;;;;;12.30;6.00;;;;;;;;;;5093098;28;20123;-57
2021/06/17 00:12:46;;;;;;;7.65;5.68;;;;;;;;;;5091231;28;20043;-58
2021/06/17 00:15:16;;;;;;;8.05;5.13;;;;;;;;;;5093062;28;20577;-57
2021/06/17 00:17:45;;;;;;;6.80;5.22;;;;;;;;;;5090306;28;20402;-57
2021/06/17 00:20:14;;;;;;;9.93;5.13;;;;;;;;;;5091255;28;20123;-57
2021/06/17 00:22:43;;;;;;;7.30;5.60;;;;;;;;;;5076885;28;20523;-57
2021/06/17 00:25:12;;;;;;;7.95;4.97;;;;;;;;;;5084310;28;20087;-57
2021/06/17 00:27:41;;;;;;;9.40;5.03;;;;;;;;;;5091184;28;20380;-58
2021/06/17 00:30:10;;;;;;;9.88;5.55;;;;;;;;;;5092657;28;20054;-56
2021/06/17 00:32:41;;;;;;;8.23;5.40;;;;;;;;;;5090890;28;20432;-57
2021/06/17 00:35:10;;;;;;;9.98;5.47;;;;;;;;;;5092155;28;20044;-56
2021/06/17 00:37:39;;;;;;;8.52;5.63;;;;;;;;;;5089753;28;20410;-57
2021/06/17 00:40:09;;;;;;;10.73;6.28;;;;;;;;;;5092113;28;20546;-56
2021/06/17 00:42:38;;;;;;;7.40;5.18;;;;;;;;;;5084906;28;20072;-57
2021/06/17 00:45:07;;;;;;;7.35;5.18;;;;;;;;;;5090845;28;20134;-58
2021/06/17 00:47:36;;;;;;;8.07;5.28;;;;;;;;;;5090927;28;20491;-58
2021/06/17 00:50:07;;;;;;;8.30;4.95;;;;;;;;;;5089962;28;20076;-57
2021/06/17 00:52:37;;;;;;;7.78;5.03;;;;;;;;;;5084844;28;20474;-59
2021/06/17 00:55:06;;;;;;;5.47;4.85;;;;;;;;;;5086546;28;20059;-58
2021/06/17 00:57:34;;;;;;;7.63;5.07;;;;;;;;;;5088442;28;20134;-57
2021/06/17 01:00:06;;;;;;;8.23;4.97;;;;;;;;;;5093075;28;20079;-58
2021/06/17 01:02:35;;;;;;;7.72;5.30;;;;;;;;;;5089080;22;20493;-66
2021/06/17 01:05:05;;;;;;;8.93;5.10;;;;;;;;;;5048732;28;20092;-68
2021/06/17 01:07:37;;;;;;;8.25;5.15;;;;;;;;;;5051700;28;20144;-68
2021/06/17 01:10:09;;;;;;;8.15;5.57;;;;;;;;;;5051456;28;20053;-68
2021/06/17 01:12:57;;;;;;;9.40;5.53;;;;;;;;;;5047540;28;20445;-68
2021/06/17 01:15:26;;;;;;;15.48;6.28;;;;;;;;;;5050859;28;20121;-68
2021/06/17 01:17:57;;;;;;;8.20;5.63;;;;;;;;;;5051371;28;20061;-68
2021/06/17 01:20:27;;;;;;;13.85;6.53;;;;;;;;;;5052430;28;20045;-68
2021/06/17 01:23:03;;;;;;;12.77;6.55;;;;;;;;;;5052207;28;20132;-68
2021/06/17 01:25:47;;;;;;;9.45;5.65;;;;;;;;;;5050902;28;20052;-68
2021/06/17 01:28:17;;;;;;;8.95;5.85;;;;;;;;;;5051574;28;20041;-68
2021/06/17 01:30:48;;;;;;;7.55;5.50;;;;;;;;;;5048403;28;20132;-68
2021/06/17 01:33:17;;;;;;;7.43;5.50;;;;;;;;;;5051716;28;20045;-68
2021/06/17 01:35:47;;;;;;;11.52;5.68;;;;;;;;;;5051281;28;20049;-68
2021/06/17 01:38:18;;;;;;;9.40;5.57;;;;;;;;;;5051129;28;20416;-68
2021/06/17 01:40:47;;;;;;;17.92;6.25;;;;;;;;;;5050905;28;20045;-68
2021/06/17 01:43:17;;;;;;;10.95;6.03;;;;;;;;;;5051691;28;20404;-68
2021/06/17 01:45:46;;;;;;;10.00;5.55;;;;;;;;;;5043880;28;20057;-68
2021/06/17 01:48:15;;;;;;;8.93;5.80;;;;;;;;;;5051262;28;20116;-68
2021/06/17 01:50:44;;;;;;;9.07;5.03;;;;;;;;;;5051060;28;20052;-68
2021/06/17 01:53:13;;;;;;;9.88;5.43;;;;;;;;;;5051290;28;20045;-68
2021/06/17 01:55:42;;;;;;;10.07;5.93;;;;;;;;;;5050079;28;20543;-68
2021/06/17 01:58:12;;;;;;;7.32;5.63;;;;;;;;;;5037655;28;20123;-68
2021/06/17 02:00:43;;;;;;;11.90;6.63;;;;;;;;;;5050691;28;20511;-68
2021/06/17 02:03:12;;;;;;;8.20;5.20;;;;;;;;;;5063672;28;20136;-68
2021/06/17 02:05:43;;;;;;;7.85;5.70;;;;;;;;;;5070578;28;20147;-68
2021/06/17 02:08:11;;;;;;;6.82;5.53;;;;;;;;;;5070896;28;20359;-68
2021/06/17 02:10:40;;;;;;;6.57;5.13;;;;;;;;;;5070735;28;20407;-68
2021/06/17 02:13:11;;;;;;;7.50;4.95;;;;;;;;;;5070984;28;20048;-68
2021/06/17 02:15:43;;;;;;;7.78;5.10;;;;;;;;;;5069770;28;20135;-68
2021/06/17 02:18:13;;;;;;;10.15;5.28;;;;;;;;;;5070437;28;20094;-68
2021/06/17 02:20:42;;;;;;;8.32;5.35;;;;;;;;;;5070449;28;20485;-68
2021/06/17 02:23:12;;;;;;;7.55;5.88;;;;;;;;;;5071443;28;20131;-68
2021/06/17 02:25:41;;;;;;;6.97;5.50;;;;;;;;;;5070170;28;20048;-68
2021/06/17 02:28:11;;;;;;;9.25;6.18;;;;;;;;;;5070231;28;20575;-68
2021/06/17 02:30:41;;;;;;;11.32;6.30;;;;;;;;;;5071036;28;20045;-68
2021/06/17 02:33:13;;;;;;;8.85;6.05;;;;;;;;;;5070761;28;20056;-68
2021/06/17 02:35:43;;;;;;;9.82;6.30;;;;;;;;;;5069931;28;20037;-68
2021/06/17 02:38:12;;;;;;;11.65;6.00;;;;;;;;;;5070286;28;20045;-68
2021/06/17 02:40:42;;;;;;;8.50;5.97;;;;;;;;;;5070031;28;20372;-68
2021/06/17 02:43:13;;;;;;;7.93;5.55;;;;;;;;;;5070504;28;20147;-68
2021/06/17 02:45:41;;;;;;;8.35;5.88;;;;;;;;;;5070075;28;20040;-68
2021/06/17 02:48:11;;;;;;;8.40;6.00;;;;;;;;;;5067973;28;20044;-68
2021/06/17 02:50:40;;;;;;;7.50;5.85;;;;;;;;;;5069117;28;20249;-68
2021/06/17 02:53:09;;;;;;;11.32;6.18;;;;;;;;;;5070679;28;20048;-68
2021/06/17 02:55:38;;;;;;;8.63;5.90;;;;;;;;;;5064107;28;20047;-68
2021/06/17 02:58:24;;;;;;;8.65;5.93;;;;;;;;;;5070137;28;20143;-68
2021/06/17 03:00:56;;;;;;;9.70;6.22;;;;;;;;;;5064503;28;20127;-68
2021/06/17 03:03:28;;;;;;;10.18;6.13;;;;;;;;;;5065955;28;20103;-68
2021/06/17 03:05:58;;;;;;;8.68;5.72;;;;;;;;;;5056481;28;20618;-68
2021/06/17 03:08:30;;;;;;;7.35;5.45;;;;;;;;;;5051219;28;20160;-68
2021/06/17 03:11:00;;;;;;;8.77;6.38;;;;;;;;;;5049815;28;20501;-68
2021/06/17 03:13:31;;;;;;;8.98;6.38;;;;;;;;;;5049969;28;20128;-68
2021/06/17 03:15:59;;;;;;;8.93;6.38;;;;;;;;;;5051111;28;20053;-68
2021/06/17 03:18:30;;;;;;;11.30;6.30;;;;;;;;;;5054356;28;20553;-68
2021/06/17 03:21:00;;;;;;;13.48;6.57;;;;;;;;;;5070238;28;20059;-68
2021/06/17 03:23:29;;;;;;;10.18;6.38;;;;;;;;;;5055974;28;20075;-68
2021/06/17 03:25:59;;;;;;;10.88;6.53;;;;;;;;;;5062570;28;20135;-68
2021/06/17 03:28:29;;;;;;;12.27;6.57;;;;;;;;;;5072494;28;20483;-68
2021/06/17 03:30:57;;;;;;;9.88;6.00;;;;;;;;;;5062354;28;20464;-68
2021/06/17 03:33:27;;;;;;;8.73;5.85;;;;;;;;;;5039524;28;20052;-68
2021/06/17 03:35:57;;;;;;;9.80;6.30;;;;;;;;;;5056049;28;20368;-69
2021/06/17 03:38:26;;;;;;;10.02;6.15;;;;;;;;;;5074384;28;20049;-68
2021/06/17 03:40:56;;;;;;;11.60;6.55;;;;;;;;;;5066827;28;20108;-68
2021/06/17 03:43:25;;;;;;;13.57;6.70;;;;;;;;;;5070163;28;20083;-68
2021/06/17 03:45:54;;;;;;;12.40;7.00;;;;;;;;;;5057552;28;20045;-68
2021/06/17 03:48:23;;;;;;;15.88;7.15;;;;;;;;;;5057104;28;20041;-68
2021/06/17 03:50:53;;;;;;;14.82;7.00;;;;;;;;;;5053912;28;20048;-68
2021/06/17 03:53:23;;;;;;;10.35;6.55;;;;;;;;;;5061937;28;20076;-68
2021/06/17 03:55:53;;;;;;;10.43;6.25;;;;;;;;;;5053693;28;20045;-68
2021/06/17 03:58:23;;;;;;;13.18;6.82;;;;;;;;;;5052778;28;20092;-68
2021/06/17 04:00:54;;;;;;;16.63;7.30;;;;;;;;;;5052836;28;20123;-68
2021/06/17 04:03:23;;;;;;;12.75;6.72;;;;;;;;;;5064802;28;20048;-68
2021/06/17 04:05:51;;;;;;;9.65;6.57;;;;;;;;;;5072567;28;20051;-68
2021/06/17 04:08:23;;;;;;;11.95;6.85;;;;;;;;;;5071807;28;20068;-68
2021/06/17 04:10:53;;;;;;;10.45;6.55;;;;;;;;;;5070684;28;20547;-68
2021/06/17 04:13:21;;;;;;;10.13;6.70;;;;;;;;;;5072414;28;20072;-68
2021/06/17 04:15:50;;;;;;;11.30;6.53;;;;;;;;;;5072813;28;20140;-68
2021/06/17 04:18:18;;;;;;;9.88;6.20;;;;;;;;;;5069239;28;20041;-68
2021/06/17 04:20:48;;;;;;;13.02;5.80;;;;;;;;;;5073120;28;20407;-68
2021/06/17 04:23:18;;;;;;;9.30;5.85;;;;;;;;;;5068743;28;20040;-68
2021/06/17 04:25:46;;;;;;;8.85;6.50;;;;;;;;;;5072294;28;20092;-68
2021/06/17 04:28:16;;;;;;;12.95;6.30;;;;;;;;;;5071960;28;20052;-68
2021/06/17 04:30:46;;;;;;;11.57;6.53;;;;;;;;;;5072858;28;20453;-68
2021/06/17 04:33:15;;;;;;;10.57;6.38;;;;;;;;;;5072767;28;20415;-68
2021/06/17 04:35:45;;;;;;;13.52;6.40;;;;;;;;;;5071800;28;20049;-68
2021/06/17 04:38:14;;;;;;;12.65;6.63;;;;;;;;;;5063909;28;20122;-68
2021/06/17 04:40:45;;;;;;;14.43;6.82;;;;;;;;;;5072586;28;20127;-68
2021/06/17 04:43:15;;;;;;;11.75;6.70;;;;;;;;;;5072199;28;20075;-68
2021/06/17 04:45:45;;;;;;;11.20;6.00;;;;;;;;;;5072863;28;20080;-68
2021/06/17 04:48:14;;;;;;;12.80;6.20;;;;;;;;;;5071365;28;20052;-68
2021/06/17 04:50:43;;;;;;;13.95;7.03;;;;;;;;;;5072777;28;20518;-68
2021/06/17 04:53:13;;;;;;;11.23;7.10;;;;;;;;;;5070877;28;20576;-68
2021/06/17 04:55:42;;;;;;;12.35;6.30;;;;;;;;;;5056208;28;20573;-68
2021/06/17 04:58:11;;;;;;;10.30;6.15;;;;;;;;;;5067781;28;20135;-68
2021/06/17 05:00:39;;;;;;;9.98;6.15;;;;;;;;;;5072476;28;20131;-68
2021/06/17 05:03:09;;;;;;;15.30;6.78;;;;;;;;;;5070316;28;20144;-68
2021/06/17 05:05:37;;;;;;;10.30;6.38;;;;;;;;;;5072175;28;20140;-68
2021/06/17 05:10:53;;;;;;;14.48;7.00;;;;;;;;;;5059834;28;20052;-68
2021/06/17 05:13:22;;;;;;;14.00;6.43;;;;;;;;;;5071018;28;20086;-68
2021/06/17 05:15:52;;;;;;;14.25;6.90;;;;;;;;;;5071149;28;20076;-67
2021/06/17 05:18:22;;;;;;;28.63;8.90;;;;;;;;;;5071337;28;20048;-67
2021/06/17 05:20:50;;;;;;;14.15;7.28;;;;;;;;;;5069642;28;20493;-67
2021/06/17 05:23:21;;;;;;;13.60;8.80;;;;;;;;;;5068377;28;20082;-67
2021/06/17 05:25:50;;;;;;;19.65;8.82;;;;;;;;;;5068140;28;20152;-67
2021/06/17 05:28:21;;;;;;;16.77;7.60;;;;;;;;;;5067510;28;20048;-67
2021/06/17 05:30:50;;;;;;;19.27;9.00;;;;;;;;;;5056094;28;20146;-67
2021/06/17 05:33:18;;;;;;;17.42;9.52;;;;;;;;;;5066830;28;20052;-67
2021/06/17 05:35:48;;;;;;;18.90;8.30;;;;;;;;;;5066425;28;20143;-67
2021/06/17 05:38:17;;;;;;;15.52;8.45;;;;;;;;;;5064281;28;20441;-67
2021/06/17 05:40:46;;;;;;;22.38;9.15;;;;;;;;;;5052917;28;20749;-67
2021/06/17 05:43:14;;;;;;;17.15;8.20;;;;;;;;;;5067591;28;20135;-67
2021/06/17 05:45:43;;;;;;;15.98;8.57;;;;;;;;;;5067313;28;20079;-67
2021/06/17 05:48:12;;;;;;;17.40;8.00;;;;;;;;;;5067044;28;20056;-67
2021/06/17 05:50:40;;;;;;;21.40;8.77;;;;;;;;;;5066496;28;20048;-67
2021/06/17 05:53:10;;;;;;;13.75;8.32;;;;;;;;;;5067451;28;20063;-68
2021/06/17 05:55:38;;;;;;;18.25;8.25;;;;;;;;;;5067132;28;20071;-68
2021/06/17 05:58:07;;;;;;;12.15;8.07;;;;;;;;;;5066577;28;20135;-68
2021/06/17 06:00:35;;;;;;;18.75;7.70;;;;;;;;;;5065168;28;20131;-68
2021/06/17 06:03:03;;;;;;;11.13;7.32;;;;;;;;;;5061588;28;20472;-68
2021/06/17 06:05:32;;;;;;;13.13;7.97;;;;;;;;;;5065974;28;20049;-68
2021/06/17 06:08:01;;;;;;;12.18;8.15;;;;;;;;;;5055696;28;20044;-67
2021/06/17 06:10:31;;;;;;;16.35;8.80;;;;;;;;;;5067922;28;20044;-68
2021/06/17 06:13:00;;;;;;;16.15;7.80;;;;;;;;;;5062972;28;20124;-68
2021/06/17 06:15:33;;;;;;;16.63;7.63;;;;;;;;;;5067238;28;20365;-68
2021/06/17 06:18:08;;;;;;;15.60;7.15;;;;;;;;;;5067997;28;20076;-68
2021/06/17 06:20:36;;;;;;;;;;;;;;;;;;5068068;28;20087;-68
2021/06/17 06:23:05;;;;;;;15.68;8.65;;;;;;;;;;5067801;28;20007;-68
2021/06/17 06:25:35;;;;;;;13.43;7.65;;;;;;;;;;5066524;28;20743;-68
2021/06/17 06:28:04;;;;;;;19.30;8.77;;;;;;;;;;5066739;28;20393;-68
2021/06/17 06:30:33;;;;;;;15.95;8.23;;;;;;;;;;5068054;28;20045;-68
2021/06/17 06:33:01;;;;;;;15.32;7.72;;;;;;;;;;5068482;28;20338;-67
2021/06/17 06:35:29;;;;;;;21.13;7.20;;;;;;;;;;5067511;28;20091;-67
2021/06/17 06:37:58;;;;;;;15.18;7.88;;;;;;;;;;5062855;28;20475;-68
2021/06/17 06:40:27;;;;;;;15.05;8.50;;;;;;;;;;5062714;28;20465;-68
2021/06/17 06:42:57;;;;;;;14.35;7.05;;;;;;;;;;5067458;28;20052;-68
2021/06/17 06:45:26;;;;;;;18.55;7.45;;;;;;;;;;5066533;28;20044;-67
2021/06/17 06:47:55;;;;;;;18.55;6.78;;;;;;;;;;5066689;28;20462;-68
2021/06/17 06:50:23;;;;;;;14.80;6.85;;;;;;;;;;5065326;28;20131;-68
2021/06/17 06:52:52;;;;;;;13.82;6.90;;;;;;;;;;5067862;28;20161;-68
2021/06/17 06:55:21;;;;;;;16.85;7.40;;;;;;;;;;5065546;28;20412;-67
2021/06/17 06:57:50;;;;;;;11.20;6.53;;;;;;;;;;5049603;28;20552;-68
2021/06/17 07:00:20;;;;;;;20.35;6.88;;;;;;;;;;5046205;28;20099;-68
2021/06/17 07:02:50;;;;;;;13.85;7.47;;;;;;;;;;5034013;28;20057;-68
2021/06/17 07:05:19;;;;;;;17.23;7.40;;;;;;;;;;5045028;28;20186;-68
2021/06/17 07:07:48;;;;;;;15.93;7.05;;;;;;;;;;5043799;28;20166;-67
2021/06/17 07:10:16;;;;;;;13.93;7.18;;;;;;;;;;5046084;28;20041;-66
2021/06/17 07:12:45;;;;;;;19.17;7.05;;;;;;;;;;5047273;28;20067;-66
2021/06/17 07:15:14;;;;;;;16.45;6.68;;;;;;;;;;5047444;28;20076;-67
2021/06/17 07:17:44;;;;;;;15.05;7.05;;;;;;;;;;5048766;28;20052;-67
2021/06/17 07:20:12;;;;;;;15.93;6.63;;;;;;;;;;5050879;28;20045;-65
2021/06/17 07:22:42;;;;;;;15.32;6.88;;;;;;;;;;5049754;28;20098;-65
2021/06/17 07:25:11;;;;;;;15.18;6.90;;;;;;;;;;5049104;28;20687;-66
2021/06/17 07:27:40;;;;;;;9.10;6.25;;;;;;;;;;5049815;28;20275;-66
2021/06/17 07:30:10;;;;;;;20.27;6.93;;;;;;;;;;5050303;28;20045;-66
2021/06/17 07:32:39;;;;;;;15.73;5.88;;;;;;;;;;5050338;28;20037;-66
2021/06/17 07:35:09;;;;;;;12.20;6.70;;;;;;;;;;5050441;28;20068;-66
2021/06/17 07:37:39;;;;;;;14.10;6.60;;;;;;;;;;5048478;28;20060;-67
2021/06/17 07:40:09;;;;;;;20.13;6.95;;;;;;;;;;5048261;28;20055;-66
2021/06/17 07:42:38;;;;;;;14.95;6.13;;;;;;;;;;5050562;28;20052;-66
2021/06/17 07:45:07;;;;;;;15.23;6.07;;;;;;;;;;5049531;28;20408;-67
2021/06/17 07:47:37;;;;;;;15.73;6.18;;;;;;;;;;5050683;28;20045;-66
2021/06/17 07:50:06;;;;;;;14.48;6.70;;;;;;;;;;5050251;28;20146;-66
2021/06/17 07:52:36;;;;;;;17.33;7.40;;;;;;;;;;5049552;28;20059;-67
2021/06/17 07:55:09;;;;;;;22.50;7.30;;;;;;;;;;5060075;28;20134;-66
2021/06/17 07:57:38;;;;;;;14.38;7.68;;;;;;;;;;5048106;28;20041;-64
2021/06/17 08:00:07;;;;;;;19.63;7.55;;;;;;;;;;5049201;28;20447;-65
2021/06/17 08:02:37;;;;;;;18.42;7.05;;;;;;;;;;5061817;28;20060;-65
2021/06/17 08:05:06;;;;;;;17.88;7.20;;;;;;;;;;5041964;28;20049;-65
2021/06/17 08:07:37;;;;;;;18.75;7.50;;;;;;;;;;5045507;28;20045;-65
2021/06/17 08:10:07;;;;;;;18.10;7.38;;;;;;;;;;5067287;28;20137;-65
2021/06/17 08:12:35;;;;;;;14.98;6.72;;;;;;;;;;5030634;28;20049;-65
2021/06/17 08:15:05;;;;;;;13.82;7.32;;;;;;;;;;5052674;28;20095;-65
2021/06/17 08:17:34;;;;;;;10.98;6.55;;;;;;;;;;5066296;28;20094;-65
2021/06/17 08:20:02;;;;;;;9.70;6.00;;;;;;;;;;5028285;28;20666;-65
2021/06/17 08:22:31;;;;;;;11.07;6.57;;;;;;;;;;5065620;28;20052;-65
2021/06/17 08:25:01;;;;;;;16.67;6.30;;;;;;;;;;5053423;28;20076;-65
2021/06/17 08:27:30;;;;;;;15.52;6.32;;;;;;;;;;5050633;28;20386;-66
2021/06/17 08:29:59;;;;;;;13.02;6.18;;;;;;;;;;5050879;28;20061;-65
2021/06/17 08:32:28;;;;;;;11.10;6.10;;;;;;;;;;5049887;28;20056;-65
2021/06/17 08:34:57;;;;;;;11.95;6.30;;;;;;;;;;5050482;28;20053;-65
2021/06/17 08:37:25;;;;;;;13.82;6.00;;;;;;;;;;5059184;28;20048;-65
2021/06/17 08:39:55;;;;;;;10.00;5.95;;;;;;;;;;5046906;28;20136;-66
2021/06/17 08:42:27;;;;;;;19.48;7.15;;;;;;;;;;5060278;28;20048;-65
2021/06/17 08:44:56;;;;;;;7.95;5.32;;;;;;;;;;5047225;28;20586;-66
2021/06/17 08:47:26;;;;;;;11.82;6.32;;;;;;;;;;5036149;28;20397;-66
2021/06/17 08:49:55;;;;;;;17.67;5.80;;;;;;;;;;5033276;28;20359;-66
2021/06/17 08:52:23;;;;;;;12.13;5.97;;;;;;;;;;5047006;28;20056;-66
2021/06/17 08:54:52;;;;;;;10.85;5.30;;;;;;;;;;5055495;28;20504;-66
2021/06/17 08:57:21;;;;;;;14.50;5.68;;;;;;;;;;5052485;28;20128;-63
2021/06/17 08:59:51;;;;;;;9.23;5.28;;;;;;;;;;5047771;28;20048;-64
2021/06/17 09:02:19;;;;;;;11.23;5.65;;;;;;;;;;5048617;28;21636;-65
2021/06/17 09:04:48;;;;;;;9.55;4.82;;;;;;;;;;5047577;28;20444;-65
2021/06/17 09:07:17;;;;;;;8.65;5.30;;;;;;;;;;5047889;28;20053;-65
2021/06/17 09:09:46;;;;;;;9.02;5.25;;;;;;;;;;5044398;28;20067;-65
2021/06/17 09:12:17;;;;;;;11.30;5.03;;;;;;;;;;5049582;28;20053;-65
2021/06/17 09:15:05;;;;;;;10.35;5.18;;;;;;;;;;5034508;28;20053;-65
2021/06/17 09:17:34;;;;;;;8.45;4.72;;;;;;;;;;5049446;28;20049;-65
2021/06/17 09:20:04;;;;;;;6.03;4.55;;;;;;;;;;5050121;28;20061;-65
2021/06/17 09:22:34;;;;;;;11.30;4.70;;;;;;;;;;5049586;28;20134;-65
2021/06/17 09:25:04;;;;;;;7.55;4.93;;;;;;;;;;5048134;28;20102;-65
2021/06/17 09:27:34;;;;;;;8.02;4.47;;;;;;;;;;5052437;28;20056;-65
2021/06/17 09:30:18;;;;;;;8.57;4.13;;;;;;;;;;5068698;28;20512;-65
2021/06/17 09:32:48;;;;;;;8.07;4.55;;;;;;;;;;5065221;28;20540;-65
2021/06/17 09:35:18;;;;;;;6.75;4.20;;;;;;;;;;5068929;28;20040;-65
2021/06/17 09:37:48;;;;;;;8.82;3.92;;;;;;;;;;5052866;28;20041;-65
2021/06/17 09:40:23;;;;;;;5.63;3.90;;;;;;;;;;5049519;28;20052;-65
2021/06/17 09:42:53;;;;;;;13.00;4.55;;;;;;;;;;5058874;28;20198;-65
2021/06/17 09:45:24;;;;;;;7.93;4.38;;;;;;;;;;5045082;28;20049;-65
2021/06/17 09:47:54;;;;;;;6.38;4.60;;;;;;;;;;5047621;28;20063;-65
2021/06/17 09:50:26;;;;;;;6.05;4.20;;;;;;;;;;5048127;28;20081;-65
2021/06/17 09:52:55;;;;;;;12.82;4.53;;;;;;;;;;5049870;28;20617;-65
2021/06/17 09:55:36;;;;;;;10.55;4.72;;;;;;;;;;5051724;28;20067;-65
2021/06/17 09:58:05;;;;;;;10.38;4.53;;;;;;;;;;5065630;28;20139;-65
2021/06/17 10:00:37;;;;;;;10.95;4.35;;;;;;;;;;5058776;28;20476;-66
2021/06/17 10:03:16;;;;;;;9.57;4.50;;;;;;;;;;5066530;28;20052;-64
2021/06/17 10:05:45;;;;;;;8.40;4.65;;;;;;;;;;5062541;28;20041;-67
2021/06/17 10:08:13;;;;;;;6.20;4.22;;;;;;;;;;5048739;28;20484;-67
2021/06/17 10:10:42;;;;;;;6.95;3.50;;;;;;;;;;5055584;28;20151;-67
2021/06/17 10:13:11;;;;;;;6.90;3.88;;;;;;;;;;5069379;28;20041;-67
2021/06/17 10:15:41;;;;;;;7.38;4.30;;;;;;;;;;5069634;28;20087;-68
2021/06/17 10:18:10;;;;;;;8.18;4.40;;;;;;;;;;5068571;28;20076;-67
2021/06/17 10:20:41;;;;;;;6.93;4.65;;;;;;;;;;5069160;28;20110;-68
2021/06/17 10:23:11;;;;;;;10.48;4.03;;;;;;;;;;5068812;28;20567;-68
2021/06/17 10:25:39;;;;;;;7.18;4.20;;;;;;;;;;5069742;28;20045;-68
2021/06/17 10:28:08;;;;;;;10.77;3.88;;;;;;;;;;5068282;28;20076;-68
2021/06/17 10:30:46;;;;;;;5.82;4.25;;;;;;;;;;5069946;28;20060;-68
2021/06/17 10:33:27;;;;;;;5.45;3.63;;;;;;;;;;5054429;28;20530;-68
2021/06/17 10:36:11;;;;;;;8.07;3.67;;;;;;;;;;5048066;28;20048;-69
2021/06/17 10:39:14;;;;;;;8.55;3.78;;;;;;;;;;5060970;28;20055;-68
2021/06/17 10:42:09;;;;;;;4.68;4.20;;;;;;;;;;5048594;28;20048;-68
2021/06/17 10:44:38;;;;;;;7.35;3.42;;;;;;;;;;5061932;28;20124;-68
2021/06/17 10:47:08;;;;;;;6.07;3.78;;;;;;;;;;5069428;28;20087;-68
2021/06/17 10:49:54;;;;;;;9.63;3.85;;;;;;;;;;5070044;28;20057;-68
2021/06/17 10:52:27;;;;;;;18.23;4.25;;;;;;;;;;5070200;28;20044;-68
2021/06/17 10:54:59;;;;;;;7.47;3.63;;;;;;;;;;5070042;28;20045;-68
2021/06/17 10:57:48;;;;;;;6.25;4.38;;;;;;;;;;5049612;28;20455;-68
2021/06/17 11:00:35;;;;;;;6.18;3.90;;;;;;;;;;5048522;28;20134;-68
2021/06/17 11:03:18;;;;;;;5.93;3.35;;;;;;;;;;5050727;28;20435;-67
2021/06/17 11:05:54;;;;;;;6.25;2.92;;;;;;;;;;5070294;28;20056;-68
2021/06/17 11:08:23;;;;;;;4.35;2.83;;;;;;;;;;5068737;28;20128;-68
2021/06/17 11:10:52;;;;;;;4.70;3.22;;;;;;;;;;5069845;28;20098;-68
2021/06/17 11:13:28;;;;;;;8.80;3.05;;;;;;;;;;5070111;28;20052;-68
2021/06/17 11:15:57;;;;;;;4.75;2.67;;;;;;;;;;5068963;28;20052;-68
2021/06/17 11:18:46;;;;;;;4.28;2.80;;;;;;;;;;5069905;28;20048;-67
2021/06/17 11:21:33;;;;;;;6.72;2.90;;;;;;;;;;5070338;28;20139;-67
2021/06/17 11:24:23;;;;;;;3.70;2.53;;;;;;;;;;5058565;28;20032;-67
2021/06/17 11:26:52;;;;;;;6.70;2.90;;;;;;;;;;5069488;28;20048;-67
2021/06/17 11:29:44;;;;;;;3.60;2.65;;;;;;;;;;5070523;28;20048;-68
2021/06/17 11:32:27;;;;;;;7.88;3.47;;;;;;;;;;5070286;28;20484;-68
2021/06/17 11:34:56;;;;;;;4.78;3.30;;;;;;;;;;5069088;28;20497;-68
2021/06/17 11:37:30;;;;;;;6.80;3.03;;;;;;;;;;5069312;28;20075;-68
2021/06/17 11:40:01;;;;;;;5.18;3.53;;;;;;;;;;5070163;28;20048;-68
2021/06/17 11:42:31;;;;;;;4.75;3.00;;;;;;;;;;5068597;28;20055;-66
2021/06/17 11:45:05;;;;;;;8.60;3.35;;;;;;;;;;5069198;28;20056;-66
2021/06/17 11:47:33;;;;;;;5.30;3.67;;;;;;;;;;5060588;28;20504;-67
2021/06/17 11:50:07;;;;;;;4.80;3.40;;;;;;;;;;5071956;28;20066;-67
2021/06/17 11:52:36;;;;;;;;;;;;;;;;;;5070425;28;20053;-67
2021/06/17 11:55:08;;;;;;;7.68;3.38;;;;;;;;;;5050860;28;19921;-67
2021/06/17 11:57:39;;;;;;;3.40;3.10;;;;;;;;;;5070329;28;20523;-67
2021/06/17 12:00:09;;;;;;;5.40;3.28;;;;;;;;;;5072026;28;20040;-67
2021/06/17 12:02:52;;;;;;;6.72;3.38;;;;;;;;;;5070320;28;20056;-67
2021/06/17 12:05:22;;;;;;;4.97;3.10;;;;;;;;;;5070959;28;20040;-67
2021/06/17 12:07:51;;;;;;;7.57;3.88;;;;;;;;;;5070083;28;20052;-67
2021/06/17 12:10:22;;;;;;;9.30;3.30;;;;;;;;;;5072819;28;20060;-67
2021/06/17 12:12:53;;;;;;;4.80;3.08;;;;;;;;;;5071723;28;20049;-67
2021/06/17 12:15:23;;;;;;;5.18;2.97;;;;;;;;;;5071938;28;20044;-67
2021/06/17 12:17:53;;;;;;;4.93;2.80;;;;;;;;;;5071234;28;20447;-67
2021/06/17 12:20:23;;;;;;;7.25;2.85;;;;;;;;;;5071941;28;20044;-67
2021/06/17 12:23:05;;;;;;;5.05;2.80;;;;;;;;;;5070965;28;20084;-67
2021/06/17 12:25:36;;;;;;;4.50;2.67;;;;;;;;;;5071692;28;20033;-67
2021/06/17 12:28:06;;;;;;;5.63;3.10;;;;;;;;;;5062810;28;20056;-67
2021/06/17 12:30:36;;;;;;;4.53;2.55;;;;;;;;;;5071624;28;20495;-67
2021/06/17 12:33:06;;;;;;;8.10;3.03;;;;;;;;;;5070887;28;20059;-67
2021/06/17 12:35:39;;;;;;;4.50;2.60;;;;;;;;;;5070677;28;20048;-67
2021/06/17 12:38:08;;;;;;;7.25;2.60;;;;;;;;;;5030514;28;20131;-67
2021/06/17 12:40:41;;;;;;;3.08;2.38;;;;;;;;;;315431;28;10023300;-67
2021/06/17 12:43:12;;;;;;;8.52;2.80;;;;;;;;;;5051414;28;20091;-67
2021/06/17 12:45:42;;;;;;;6.95;2.70;;;;;;;;;;5049434;28;20094;-67
2021/06/17 12:48:16;;;;;;;5.45;2.55;;;;;;;;;;5050012;28;20136;-67
2021/06/17 12:53:46;;;;;;;4.85;2.75;;;;;;;;;;5048288;28;20334;-67
2021/06/17 12:56:17;;;;;;;9.05;2.65;;;;;;;;;;5052816;28;20049;-67
2021/06/17 12:58:51;;;;;;;5.25;2.28;;;;;;;;;;5072009;28;20048;-67
2021/06/17 13:01:22;;;;;;;6.70;2.72;;;;;;;;;;5062187;28;20084;-67
2021/06/17 13:03:51;;;;;;;5.03;2.80;;;;;;;;;;5045916;28;20623;-68
2021/06/17 13:06:35;;;;;;;3.67;2.55;;;;;;;;;;5047032;28;20045;-67
2021/06/17 13:09:05;;;;;;;4.93;2.58;;;;;;;;;;5016304;28;20093;-67
2021/06/17 13:11:35;;;;;;;6.30;2.88;;;;;;;;;;5030375;28;20076;-67
2021/06/17 13:14:05;;;;;;;6.20;2.78;;;;;;;;;;5030877;28;20041;-67
2021/06/17 13:16:35;;;;;;;3.72;2.38;;;;;;;;;;5032286;28;20099;-67
2021/06/17 13:19:09;;;;;;;4.50;2.30;;;;;;;;;;5049590;28;20045;-67
2021/06/17 13:21:37;;;;;;;3.65;2.35;;;;;;;;;;5051354;28;20092;-67
2021/06/17 13:24:17;;;;;;;9.07;2.78;;;;;;;;;;5050444;28;20103;-67
2021/06/17 13:26:47;;;;;;;5.43;2.40;;;;;;;;;;5050193;28;20053;-67
2021/06/17 13:29:16;;;;;;;5.30;2.40;;;;;;;;;;5067749;28;20053;-67
2021/06/17 13:31:44;;;;;;;5.78;2.40;;;;;;;;;;5051324;28;20160;-67
2021/06/17 13:34:16;;;;;;;4.60;2.20;;;;;;;;;;5050316;28;20472;-66
2021/06/17 13:36:45;;;;;;;6.68;2.13;;;;;;;;;;5049136;28;20158;-66
2021/06/17 13:39:16;;;;;;;6.95;2.53;;;;;;;;;;5051208;28;20064;-66
2021/06/17 13:41:46;;;;;;;3.40;2.20;;;;;;;;;;5050278;28;20049;-66
2021/06/17 13:44:16;;;;;;;3.70;2.28;;;;;;;;;;5038797;28;20050;-66
2021/06/17 13:46:45;;;;;;;5.65;2.70;;;;;;;;;;5048506;28;20160;-66
2021/06/17 13:49:14;;;;;;;4.47;2.30;;;;;;;;;;5030642;28;20504;-66
2021/06/17 13:51:43;;;;;;;2.80;2.47;;;;;;;;;;5019527;28;20045;-66
2021/06/17 13:54:11;;;;;;;5.45;2.30;;;;;;;;;;5028665;28;20050;-66
2021/06/17 13:56:40;;;;;;;2.88;2.53;;;;;;;;;;5025143;28;20057;-66
2021/06/17 13:59:09;;;;;;;5.53;2.50;;;;;;;;;;5026410;28;20449;-66
2021/06/17 14:01:39;;;;;;;4.88;2.38;;;;;;;;;;5029458;28;20045;-66
2021/06/17 14:04:13;;;;;;;7.00;2.47;;;;;;;;;;5035406;28;20057;-65
2021/06/17 14:06:43;;;;;;;4.20;2.05;;;;;;;;;;5038381;28;20053;-65
2021/06/17 14:09:12;;;;;;;3.25;2.30;;;;;;;;;;5049727;28;20048;-66
2021/06/17 14:11:42;;;;;;;4.25;2.35;;;;;;;;;;5048091;28;20048;-66
2021/06/17 14:14:11;;;;;;;5.65;2.58;;;;;;;;;;5048081;28;20044;-66
2021/06/17 14:16:42;;;;;;;4.68;2.30;;;;;;;;;;5047187;28;20135;-66
2021/06/17 14:19:12;;;;;;;5.25;2.50;;;;;;;;;;5029053;28;20458;-66
2021/06/17 14:21:41;;;;;;;3.17;2.08;;;;;;;;;;5043718;28;20042;-66
2021/06/17 14:24:10;;;;;;;3.35;2.00;;;;;;;;;;5048353;28;20065;-66
2021/06/17 14:26:42;;;;;;;3.60;2.00;;;;;;;;;;5047094;28;20052;-66
2021/06/17 14:29:10;;;;;;;3.38;2.03;;;;;;;;;;5040489;28;20228;-65
2021/06/17 14:31:39;;;;;;;2.75;1.90;;;;;;;;;;5047268;28;20057;-66
2021/06/17 14:34:09;;;;;;;2.15;1.63;;;;;;;;;;5049077;28;20037;-67
2021/06/17 14:36:39;;;;;;;4.25;2.22;;;;;;;;;;5054606;28;20052;-67
2021/06/17 14:39:08;;;;;;;1.80;1.60;;;;;;;;;;5053332;28;20377;-67
2021/06/17 14:41:37;;;;;;;3.53;1.92;;;;;;;;;;5051060;28;20049;-65
2021/06/17 14:44:10;;;;;;;3.90;2.17;;;;;;;;;;5049173;28;20073;-65
2021/06/17 14:46:39;;;;;;;2.85;1.60;;;;;;;;;;5047514;28;20045;-66
2021/06/17 14:49:09;;;;;;;3.17;1.98;;;;;;;;;;5044246;28;20051;-66
2021/06/17 14:51:38;;;;;;;3.83;1.90;;;;;;;;;;5051238;28;20040;-66
2021/06/17 14:54:08;;;;;;;5.28;1.90;;;;;;;;;;5038824;28;20412;-66
2021/06/17 14:56:38;;;;;;;3.38;1.88;;;;;;;;;;5053506;28;20128;-66
2021/06/17 14:59:10;;;;;;;3.05;2.00;;;;;;;;;;5059113;28;20136;-66
2021/06/17 15:01:38;;;;;;;3.50;1.80;;;;;;;;;;5051512;28;20510;-67
2021/06/17 15:04:08;;;;;;;3.35;2.05;;;;;;;;;;5059831;28;20080;-67